aviador You're here:

LFMV Decoded Metar

AVIGNON in FRANCE
Report Time2018-06-17 21:30:00
UTC Time2018-06-17 21:51:49
Flight Rules vfr VFR
Wind340° at 21 kt
W.Decomp.*RWY 35: 20.6 kt HW 4 kt LCW
W.Rank340° ranks 3
Current wind is above 340° avg. (11.7)
Visibility9999 m
Phenomena:N/A
Clouds:N/A
Expected CloudBase > 3,600 ft AGL from Temp-Dew spread
CeilingNone
Temp21°C (ISA +6)
Dew Point12°C (57% RH)
AAT14.1°C
QNH1017 hPa
Density Alt909 ft
Elevation125 ft
Report Wrong Elevation
Raw Report
LFMV 172130Z AUTO 34021KT CAVOK 21/12 Q1017=

Extra information for LFMV:More info

Metar Taf Metar & Taf Last 4 Metars F.Rules Stats Wind Profile Meteogram Temp Stats Airport Information Weather charts Add Link Nearby VenuesMetar ALERT Operation Metar Decoded Social comments